GMAD/AGA METAR and TAF weather

Enter ICAO airport designator
Station Type Date Time Source
GMAD METAR 2020/02/16 20:00 UTC NOAA

GMAD 162000Z 27007KT CAVOK 23/01 Q1022 NOSIG


Station Type Date Time Source
GMAD Decoded METAR 2020/02/16 20:00 UTC NOAA

Agadir Al Massira, Morocco (GMAD) 30-20N 009-24W 74M
Feb 16, 2020 - 03:00 PM EST / 2020.02.16 2000 UTC
Wind: from the W (270 degrees) at 8 MPH (7 KT):0
Visibility: greater than 7 mile(s):0
Temperature: 73 F (23 C)
Dew Point: 33 F (1 C)
Relative Humidity: 23%
Pressure (altimeter): 30.18 in. Hg (1022 hPa)
ob: GMAD 162000Z 27007KT CAVOK 23/01 Q1022 NOSIG
cycle: 20

Station Type Date Time Source
GMAD TAF 2020/02/16 18:18 UTC NOAA

TAF TAF GMAD 161700Z 1618/1724 12006KT CAVOK
BECMG 1712/1714 28012KT

Example: see airport list